KBKL/BKL METAR and TAF weather

Enter ICAO airport designator
Station Type Date Time Source
KBKL METAR 2020/11/28 18:53 UTC NOAA

KBKL 281853Z 27010KT 10SM CLR 07/M01 A3014 RMK AO2 SLP208 T00671011


Station Type Date Time Source
KBKL Decoded METAR 2020/11/28 18:53 UTC NOAA

CLEVELAND BURKE LAKEFRONT, OH, United States (KBKL) 41-32N 81-40W 184M
Nov 28, 2020 - 01:53 PM EST / 2020.11.28 1853 UTC
Wind: from the W (270 degrees) at 12 MPH (10 KT):0
Visibility: 10 mile(s):0
Sky conditions: clear
Temperature: 44.1 F (6.7 C)
Dew Point: 30.0 F (-1.1 C)
Relative Humidity: 57%
Pressure (altimeter): 30.14 in. Hg (1020 hPa)
ob: KBKL 281853Z 27010KT 10SM CLR 07/M01 A3014 RMK AO2 SLP208 T00671011
cycle: 19

Station Type Date Time Source
KBKL TAF UTC NOAA

Error!

Example: see airport list